sensor_id;sensor_type;location;lat;lon;timestamp;P1;durP1;ratioP1;P2;durP2;ratioP2
41799;SDS011;27468;47.460;19.034;2023-05-07T00:00:08;7.18;;;4.70;;
41799;SDS011;27468;47.460;19.034;2023-05-07T00:02:34;7.00;;;3.97;;
41799;SDS011;27468;47.460;19.034;2023-05-07T00:05:00;6.68;;;3.75;;
41799;SDS011;27468;47.460;19.034;2023-05-07T00:07:27;6.30;;;3.95;;
41799;SDS011;27468;47.460;19.034;2023-05-07T00:09:53;5.97;;;4.00;;
41799;SDS011;27468;47.460;19.034;2023-05-07T00:12:18;6.65;;;3.80;;
41799;SDS011;27468;47.460;19.034;2023-05-07T00:14:43;7.38;;;4.00;;
41799;SDS011;27468;47.460;19.034;2023-05-07T00:17:09;5.68;;;4.00;;
41799;SDS011;27468;47.460;19.034;2023-05-07T00:19:34;5.45;;;3.60;;
41799;SDS011;27468;47.460;19.034;2023-05-07T00:22:00;5.70;;;3.65;;
41799;SDS011;27468;47.460;19.034;2023-05-07T00:24:25;6.18;;;3.78;;
41799;SDS011;27468;47.460;19.034;2023-05-07T00:26:51;7.82;;;4.25;;
41799;SDS011;27468;47.460;19.034;2023-05-07T00:29:17;5.30;;;3.80;;
41799;SDS011;27468;47.460;19.034;2023-05-07T00:31:43;5.25;;;3.75;;
41799;SDS011;27468;47.460;19.034;2023-05-07T00:34:08;6.18;;;4.18;;
41799;SDS011;27468;47.460;19.034;2023-05-07T00:36:34;6.22;;;3.90;;
41799;SDS011;27468;47.460;19.034;2023-05-07T00:39:00;6.10;;;3.55;;
41799;SDS011;27468;47.460;19.034;2023-05-07T00:41:26;6.63;;;3.67;;
41799;SDS011;27468;47.460;19.034;2023-05-07T00:43:52;5.43;;;3.47;;
41799;SDS011;27468;47.460;19.034;2023-05-07T00:46:18;7.00;;;3.85;;
41799;SDS011;27468;47.460;19.034;2023-05-07T00:48:45;6.70;;;3.55;;
41799;SDS011;27468;47.460;19.034;2023-05-07T00:51:11;6.25;;;3.67;;
41799;SDS011;27468;47.460;19.034;2023-05-07T00:53:37;6.43;;;3.65;;
41799;SDS011;27468;47.460;19.034;2023-05-07T00:56:03;6.88;;;4.15;;
41799;SDS011;27468;47.460;19.034;2023-05-07T00:58:31;5.45;;;3.47;;
41799;SDS011;27468;47.460;19.034;2023-05-07T01:00:57;5.50;;;3.60;;
41799;SDS011;27468;47.460;19.034;2023-05-07T01:03:23;5.72;;;3.35;;
41799;SDS011;27468;47.460;19.034;2023-05-07T01:05:48;4.63;;;3.40;;
41799;SDS011;27468;47.460;19.034;2023-05-07T01:08:15;5.70;;;3.38;;
41799;SDS011;27468;47.460;19.034;2023-05-07T01:10:43;4.72;;;3.17;;
41799;SDS011;27468;47.460;19.034;2023-05-07T01:13:10;5.20;;;3.35;;
41799;SDS011;27468;47.460;19.034;2023-05-07T01:15:37;5.20;;;3.20;;
41799;SDS011;27468;47.460;19.034;2023-05-07T01:18:03;5.75;;;3.35;;
41799;SDS011;27468;47.460;19.034;2023-05-07T01:20:28;4.60;;;3.03;;
41799;SDS011;27468;47.460;19.034;2023-05-07T01:22:54;7.10;;;3.75;;
41799;SDS011;27468;47.460;19.034;2023-05-07T01:25:20;5.95;;;3.60;;
41799;SDS011;27468;47.460;19.034;2023-05-07T01:27:46;5.90;;;3.50;;
41799;SDS011;27468;47.460;19.034;2023-05-07T01:30:12;5.45;;;3.15;;
41799;SDS011;27468;47.460;19.034;2023-05-07T01:32:38;4.82;;;3.03;;
41799;SDS011;27468;47.460;19.034;2023-05-07T01:35:09;4.75;;;3.42;;
41799;SDS011;27468;47.460;19.034;2023-05-07T01:37:36;4.00;;;2.90;;
41799;SDS011;27468;47.460;19.034;2023-05-07T01:40:03;7.07;;;3.80;;
41799;SDS011;27468;47.460;19.034;2023-05-07T01:42:29;5.68;;;3.40;;
41799;SDS011;27468;47.460;19.034;2023-05-07T01:44:55;6.72;;;3.88;;
41799;SDS011;27468;47.460;19.034;2023-05-07T01:47:21;5.97;;;3.70;;
41799;SDS011;27468;47.460;19.034;2023-05-07T01:49:47;5.32;;;3.47;;
41799;SDS011;27468;47.460;19.034;2023-05-07T01:52:13;6.05;;;3.45;;
41799;SDS011;27468;47.460;19.034;2023-05-07T01:54:38;5.80;;;3.92;;
41799;SDS011;27468;47.460;19.034;2023-05-07T01:57:03;6.93;;;3.53;;
41799;SDS011;27468;47.460;19.034;2023-05-07T01:59:29;5.60;;;3.70;;
41799;SDS011;27468;47.460;19.034;2023-05-07T02:01:55;4.95;;;3.17;;
41799;SDS011;27468;47.460;19.034;2023-05-07T02:04:20;7.05;;;4.32;;
41799;SDS011;27468;47.460;19.034;2023-05-07T02:06:46;5.88;;;3.17;;
41799;SDS011;27468;47.460;19.034;2023-05-07T02:09:11;4.80;;;3.17;;
41799;SDS011;27468;47.460;19.034;2023-05-07T02:11:36;5.32;;;3.80;;
41799;SDS011;27468;47.460;19.034;2023-05-07T02:14:02;5.95;;;3.35;;
41799;SDS011;27468;47.460;19.034;2023-05-07T02:16:27;4.88;;;3.72;;
41799;SDS011;27468;47.460;19.034;2023-05-07T02:18:53;5.82;;;3.67;;
41799;SDS011;27468;47.460;19.034;2023-05-07T02:21:18;7.38;;;3.67;;
41799;SDS011;27468;47.460;19.034;2023-05-07T02:23:43;6.10;;;3.80;;
41799;SDS011;27468;47.460;19.034;2023-05-07T02:26:10;5.70;;;3.63;;
41799;SDS011;27468;47.460;19.034;2023-05-07T02:28:36;5.35;;;3.63;;
41799;SDS011;27468;47.460;19.034;2023-05-07T02:31:07;5.85;;;3.53;;
41799;SDS011;27468;47.460;19.034;2023-05-07T02:33:32;5.70;;;3.17;;
41799;SDS011;27468;47.460;19.034;2023-05-07T02:36:06;6.25;;;3.20;;
41799;SDS011;27468;47.460;19.034;2023-05-07T02:38:35;7.13;;;3.60;;
41799;SDS011;27468;47.460;19.034;2023-05-07T02:41:01;4.22;;;3.20;;
41799;SDS011;27468;47.460;19.034;2023-05-07T02:43:26;5.60;;;3.45;;
41799;SDS011;27468;47.460;19.034;2023-05-07T02:46:01;7.07;;;3.63;;
41799;SDS011;27468;47.460;19.034;2023-05-07T02:48:28;5.80;;;3.50;;
41799;SDS011;27468;47.460;19.034;2023-05-07T02:50:53;6.13;;;3.30;;
41799;SDS011;27468;47.460;19.034;2023-05-07T02:53:19;5.75;;;3.35;;
41799;SDS011;27468;47.460;19.034;2023-05-07T02:55:44;5.95;;;3.92;;
41799;SDS011;27468;47.460;19.034;2023-05-07T02:58:10;6.43;;;3.75;;
41799;SDS011;27468;47.460;19.034;2023-05-07T03:00:35;6.28;;;3.67;;
41799;SDS011;27468;47.460;19.034;2023-05-07T03:03:01;7.38;;;3.80;;
41799;SDS011;27468;47.460;19.034;2023-05-07T03:05:26;5.25;;;3.60;;
41799;SDS011;27468;47.460;19.034;2023-05-07T03:07:51;6.20;;;3.58;;
41799;SDS011;27468;47.460;19.034;2023-05-07T03:10:17;6.13;;;3.45;;
41799;SDS011;27468;47.460;19.034;2023-05-07T03:12:43;6.35;;;3.15;;
41799;SDS011;27468;47.460;19.034;2023-05-07T03:15:09;5.15;;;3.30;;
41799;SDS011;27468;47.460;19.034;2023-05-07T03:17:35;4.78;;;3.25;;
41799;SDS011;27468;47.460;19.034;2023-05-07T03:20:01;5.60;;;3.58;;
41799;SDS011;27468;47.460;19.034;2023-05-07T03:22:26;5.15;;;3.42;;
41799;SDS011;27468;47.460;19.034;2023-05-07T03:24:52;7.97;;;3.80;;
41799;SDS011;27468;47.460;19.034;2023-05-07T03:27:17;5.10;;;3.42;;
41799;SDS011;27468;47.460;19.034;2023-05-07T03:29:42;4.53;;;3.00;;
41799;SDS011;27468;47.460;19.034;2023-05-07T03:32:08;4.53;;;2.78;;
41799;SDS011;27468;47.460;19.034;2023-05-07T03:34:33;4.60;;;2.47;;
41799;SDS011;27468;47.460;19.034;2023-05-07T03:36:59;4.00;;;2.85;;
41799;SDS011;27468;47.460;19.034;2023-05-07T03:39:25;3.38;;;2.55;;
41799;SDS011;27468;47.460;19.034;2023-05-07T03:41:50;4.25;;;2.78;;
41799;SDS011;27468;47.460;19.034;2023-05-07T03:44:17;3.65;;;2.47;;
41799;SDS011;27468;47.460;19.034;2023-05-07T03:46:42;3.95;;;2.80;;
41799;SDS011;27468;47.460;19.034;2023-05-07T03:49:08;4.40;;;2.83;;
41799;SDS011;27468;47.460;19.034;2023-05-07T03:51:33;4.65;;;2.72;;
41799;SDS011;27468;47.460;19.034;2023-05-07T03:53:59;3.80;;;2.75;;
41799;SDS011;27468;47.460;19.034;2023-05-07T03:56:24;3.90;;;2.92;;
41799;SDS011;27468;47.460;19.034;2023-05-07T03:58:51;4.22;;;3.00;;
41799;SDS011;27468;47.460;19.034;2023-05-07T04:01:17;4.88;;;3.10;;
41799;SDS011;27468;47.460;19.034;2023-05-07T04:03:42;4.28;;;2.67;;
41799;SDS011;27468;47.460;19.034;2023-05-07T04:06:08;4.15;;;2.70;;
41799;SDS011;27468;47.460;19.034;2023-05-07T04:08:33;3.95;;;2.50;;
41799;SDS011;27468;47.460;19.034;2023-05-07T04:10:59;4.68;;;2.72;;
41799;SDS011;27468;47.460;19.034;2023-05-07T04:13:24;4.57;;;2.97;;
41799;SDS011;27468;47.460;19.034;2023-05-07T04:15:51;4.10;;;2.65;;
41799;SDS011;27468;47.460;19.034;2023-05-07T04:18:17;5.15;;;2.90;;
41799;SDS011;27468;47.460;19.034;2023-05-07T04:20:42;4.78;;;3.22;;
41799;SDS011;27468;47.460;19.034;2023-05-07T04:23:08;5.88;;;3.15;;
41799;SDS011;27468;47.460;19.034;2023-05-07T04:25:34;3.95;;;2.95;;
41799;SDS011;27468;47.460;19.034;2023-05-07T04:27:59;5.90;;;3.17;;
41799;SDS011;27468;47.460;19.034;2023-05-07T04:30:24;4.53;;;3.20;;
41799;SDS011;27468;47.460;19.034;2023-05-07T04:32:50;3.95;;;2.80;;
41799;SDS011;27468;47.460;19.034;2023-05-07T04:35:16;3.13;;;2.70;;
41799;SDS011;27468;47.460;19.034;2023-05-07T04:37:42;5.30;;;2.97;;
41799;SDS011;27468;47.460;19.034;2023-05-07T04:40:08;4.38;;;2.78;;
41799;SDS011;27468;47.460;19.034;2023-05-07T04:42:33;6.10;;;2.80;;
41799;SDS011;27468;47.460;19.034;2023-05-07T04:44:59;4.57;;;3.10;;
41799;SDS011;27468;47.460;19.034;2023-05-07T04:47:25;4.22;;;2.60;;
41799;SDS011;27468;47.460;19.034;2023-05-07T04:49:50;5.45;;;3.25;;
41799;SDS011;27468;47.460;19.034;2023-05-07T04:52:16;3.75;;;2.15;;
41799;SDS011;27468;47.460;19.034;2023-05-07T04:54:41;2.80;;;2.13;;
41799;SDS011;27468;47.460;19.034;2023-05-07T04:57:07;3.38;;;2.13;;
41799;SDS011;27468;47.460;19.034;2023-05-07T04:59:32;3.53;;;2.28;;
41799;SDS011;27468;47.460;19.034;2023-05-07T05:01:58;3.55;;;2.47;;
41799;SDS011;27468;47.460;19.034;2023-05-07T05:04:23;3.55;;;2.40;;
41799;SDS011;27468;47.460;19.034;2023-05-07T05:06:49;2.92;;;2.00;;
41799;SDS011;27468;47.460;19.034;2023-05-07T05:09:14;4.13;;;2.95;;
41799;SDS011;27468;47.460;19.034;2023-05-07T05:11:41;3.05;;;2.08;;
41799;SDS011;27468;47.460;19.034;2023-05-07T05:14:06;2.88;;;2.17;;
41799;SDS011;27468;47.460;19.034;2023-05-07T05:16:31;3.67;;;2.75;;
41799;SDS011;27468;47.460;19.034;2023-05-07T05:18:57;3.28;;;2.40;;
41799;SDS011;27468;47.460;19.034;2023-05-07T05:21:23;4.40;;;2.30;;
41799;SDS011;27468;47.460;19.034;2023-05-07T05:23:48;4.45;;;2.75;;
41799;SDS011;27468;47.460;19.034;2023-05-07T05:26:14;4.43;;;2.83;;
41799;SDS011;27468;47.460;19.034;2023-05-07T05:28:39;3.50;;;2.13;;
41799;SDS011;27468;47.460;19.034;2023-05-07T05:31:05;3.25;;;2.10;;
41799;SDS011;27468;47.460;19.034;2023-05-07T05:33:30;3.55;;;2.35;;
41799;SDS011;27468;47.460;19.034;2023-05-07T05:35:56;3.13;;;2.05;;
41799;SDS011;27468;47.460;19.034;2023-05-07T05:38:21;4.10;;;2.60;;
41799;SDS011;27468;47.460;19.034;2023-05-07T05:40:46;3.75;;;2.92;;
41799;SDS011;27468;47.460;19.034;2023-05-07T05:43:13;3.15;;;2.40;;
41799;SDS011;27468;47.460;19.034;2023-05-07T05:45:39;3.53;;;2.60;;
41799;SDS011;27468;47.460;19.034;2023-05-07T05:48:05;4.50;;;2.65;;
41799;SDS011;27468;47.460;19.034;2023-05-07T05:50:30;3.75;;;2.55;;
41799;SDS011;27468;47.460;19.034;2023-05-07T05:52:56;3.47;;;2.60;;
41799;SDS011;27468;47.460;19.034;2023-05-07T05:55:22;4.30;;;2.20;;
41799;SDS011;27468;47.460;19.034;2023-05-07T05:57:48;3.70;;;2.50;;
41799;SDS011;27468;47.460;19.034;2023-05-07T06:00:13;4.50;;;2.67;;
41799;SDS011;27468;47.460;19.034;2023-05-07T06:02:39;3.33;;;2.72;;
41799;SDS011;27468;47.460;19.034;2023-05-07T06:05:04;3.75;;;2.65;;
41799;SDS011;27468;47.460;19.034;2023-05-07T06:07:30;3.50;;;2.70;;
41799;SDS011;27468;47.460;19.034;2023-05-07T06:09:56;3.47;;;2.53;;
41799;SDS011;27468;47.460;19.034;2023-05-07T06:12:21;4.35;;;2.47;;
41799;SDS011;27468;47.460;19.034;2023-05-07T06:14:46;3.65;;;2.22;;
41799;SDS011;27468;47.460;19.034;2023-05-07T06:17:12;3.30;;;2.13;;
41799;SDS011;27468;47.460;19.034;2023-05-07T06:19:37;3.67;;;2.20;;
41799;SDS011;27468;47.460;19.034;2023-05-07T06:22:03;3.03;;;1.90;;
41799;SDS011;27468;47.460;19.034;2023-05-07T06:24:28;3.47;;;2.35;;
41799;SDS011;27468;47.460;19.034;2023-05-07T06:26:54;3.60;;;2.50;;
41799;SDS011;27468;47.460;19.034;2023-05-07T06:29:19;2.78;;;2.00;;
41799;SDS011;27468;47.460;19.034;2023-05-07T06:31:45;4.57;;;2.92;;
41799;SDS011;27468;47.460;19.034;2023-05-07T06:34:10;3.45;;;2.17;;
41799;SDS011;27468;47.460;19.034;2023-05-07T06:36:39;2.33;;;1.70;;
41799;SDS011;27468;47.460;19.034;2023-05-07T06:39:07;1.67;;;1.45;;
41799;SDS011;27468;47.460;19.034;2023-05-07T06:41:32;2.88;;;1.85;;
41799;SDS011;27468;47.460;19.034;2023-05-07T06:43:58;3.38;;;1.85;;
41799;SDS011;27468;47.460;19.034;2023-05-07T06:46:23;3.90;;;2.60;;
41799;SDS011;27468;47.460;19.034;2023-05-07T06:48:48;3.65;;;2.25;;
41799;SDS011;27468;47.460;19.034;2023-05-07T06:51:14;3.00;;;2.38;;
41799;SDS011;27468;47.460;19.034;2023-05-07T06:53:39;3.45;;;2.30;;
41799;SDS011;27468;47.460;19.034;2023-05-07T06:56:05;4.10;;;2.13;;
41799;SDS011;27468;47.460;19.034;2023-05-07T06:58:31;2.90;;;1.80;;
41799;SDS011;27468;47.460;19.034;2023-05-07T07:00:57;3.03;;;2.10;;
41799;SDS011;27468;47.460;19.034;2023-05-07T07:03:22;3.13;;;2.30;;
41799;SDS011;27468;47.460;19.034;2023-05-07T07:05:50;2.40;;;1.60;;
41799;SDS011;27468;47.460;19.034;2023-05-07T07:08:17;3.60;;;2.10;;
41799;SDS011;27468;47.460;19.034;2023-05-07T07:10:43;2.30;;;1.65;;
41799;SDS011;27468;47.460;19.034;2023-05-07T07:13:08;1.75;;;1.33;;
41799;SDS011;27468;47.460;19.034;2023-05-07T07:15:33;1.88;;;1.40;;
41799;SDS011;27468;47.460;19.034;2023-05-07T07:17:59;2.20;;;1.45;;
41799;SDS011;27468;47.460;19.034;2023-05-07T07:20:24;1.10;;;1.00;;
41799;SDS011;27468;47.460;19.034;2023-05-07T07:22:49;1.85;;;1.00;;
41799;SDS011;27468;47.460;19.034;2023-05-07T07:25:15;1.80;;;1.27;;
41799;SDS011;27468;47.460;19.034;2023-05-07T07:27:40;1.35;;;1.20;;
41799;SDS011;27468;47.460;19.034;2023-05-07T07:30:06;3.13;;;1.50;;
41799;SDS011;27468;47.460;19.034;2023-05-07T07:32:32;2.38;;;1.48;;
41799;SDS011;27468;47.460;19.034;2023-05-07T07:34:58;2.03;;;1.33;;
41799;SDS011;27468;47.460;19.034;2023-05-07T07:37:23;2.00;;;1.33;;
41799;SDS011;27468;47.460;19.034;2023-05-07T07:39:50;2.00;;;1.23;;
41799;SDS011;27468;47.460;19.034;2023-05-07T07:42:15;2.03;;;1.55;;
41799;SDS011;27468;47.460;19.034;2023-05-07T07:44:41;3.13;;;1.60;;
41799;SDS011;27468;47.460;19.034;2023-05-07T07:47:06;1.92;;;1.40;;
41799;SDS011;27468;47.460;19.034;2023-05-07T07:49:32;1.50;;;1.20;;
41799;SDS011;27468;47.460;19.034;2023-05-07T07:51:57;1.10;;;1.00;;
41799;SDS011;27468;47.460;19.034;2023-05-07T07:54:24;2.03;;;1.40;;
41799;SDS011;27468;47.460;19.034;2023-05-07T07:56:50;1.30;;;1.10;;
41799;SDS011;27468;47.460;19.034;2023-05-07T07:59:15;1.73;;;1.10;;
41799;SDS011;27468;47.460;19.034;2023-05-07T08:01:43;2.30;;;1.65;;
41799;SDS011;27468;47.460;19.034;2023-05-07T08:04:09;2.25;;;1.75;;
41799;SDS011;27468;47.460;19.034;2023-05-07T08:06:35;2.10;;;1.85;;
41799;SDS011;27468;47.460;19.034;2023-05-07T08:09:00;2.58;;;1.90;;
41799;SDS011;27468;47.460;19.034;2023-05-07T08:11:26;2.22;;;1.65;;
41799;SDS011;27468;47.460;19.034;2023-05-07T08:13:52;2.15;;;1.83;;
41799;SDS011;27468;47.460;19.034;2023-05-07T08:16:17;2.42;;;1.70;;
41799;SDS011;27468;47.460;19.034;2023-05-07T08:18:43;2.50;;;1.80;;
41799;SDS011;27468;47.460;19.034;2023-05-07T08:21:08;2.50;;;2.25;;
41799;SDS011;27468;47.460;19.034;2023-05-07T08:23:33;5.05;;;2.95;;
41799;SDS011;27468;47.460;19.034;2023-05-07T08:25:59;3.47;;;2.30;;
41799;SDS011;27468;47.460;19.034;2023-05-07T08:28:25;3.60;;;2.47;;
41799;SDS011;27468;47.460;19.034;2023-05-07T08:30:50;3.15;;;2.30;;
41799;SDS011;27468;47.460;19.034;2023-05-07T08:33:16;4.53;;;2.60;;
41799;SDS011;27468;47.460;19.034;2023-05-07T08:35:41;4.40;;;2.90;;
41799;SDS011;27468;47.460;19.034;2023-05-07T08:38:07;4.82;;;2.88;;
41799;SDS011;27468;47.460;19.034;2023-05-07T08:40:34;3.65;;;2.60;;
41799;SDS011;27468;47.460;19.034;2023-05-07T08:43:03;3.58;;;2.58;;
41799;SDS011;27468;47.460;19.034;2023-05-07T08:45:33;3.83;;;2.70;;
41799;SDS011;27468;47.460;19.034;2023-05-07T08:47:59;5.97;;;2.72;;
41799;SDS011;27468;47.460;19.034;2023-05-07T08:50:28;3.13;;;2.42;;
41799;SDS011;27468;47.460;19.034;2023-05-07T08:52:54;3.72;;;2.45;;
41799;SDS011;27468;47.460;19.034;2023-05-07T08:55:21;3.65;;;2.72;;
41799;SDS011;27468;47.460;19.034;2023-05-07T08:57:47;3.60;;;2.85;;
41799;SDS011;27468;47.460;19.034;2023-05-07T09:00:13;5.15;;;3.40;;
41799;SDS011;27468;47.460;19.034;2023-05-07T09:02:39;4.32;;;2.75;;
41799;SDS011;27468;47.460;19.034;2023-05-07T09:05:05;3.67;;;2.80;;
41799;SDS011;27468;47.460;19.034;2023-05-07T09:07:31;4.40;;;2.92;;
41799;SDS011;27468;47.460;19.034;2023-05-07T09:09:56;4.13;;;2.90;;
41799;SDS011;27468;47.460;19.034;2023-05-07T09:12:24;5.05;;;3.55;;
41799;SDS011;27468;47.460;19.034;2023-05-07T09:14:50;4.38;;;3.13;;
41799;SDS011;27468;47.460;19.034;2023-05-07T09:17:16;4.30;;;2.90;;
41799;SDS011;27468;47.460;19.034;2023-05-07T09:19:42;3.83;;;2.67;;
41799;SDS011;27468;47.460;19.034;2023-05-07T09:22:09;3.83;;;3.17;;
41799;SDS011;27468;47.460;19.034;2023-05-07T09:24:34;2.92;;;2.35;;
41799;SDS011;27468;47.460;19.034;2023-05-07T09:27:02;4.30;;;2.78;;
41799;SDS011;27468;47.460;19.034;2023-05-07T09:29:28;4.22;;;2.70;;
41799;SDS011;27468;47.460;19.034;2023-05-07T09:31:55;3.55;;;2.60;;
41799;SDS011;27468;47.460;19.034;2023-05-07T09:34:21;3.47;;;2.22;;
41799;SDS011;27468;47.460;19.034;2023-05-07T09:36:47;3.65;;;2.63;;
41799;SDS011;27468;47.460;19.034;2023-05-07T09:39:13;4.35;;;2.40;;
41799;SDS011;27468;47.460;19.034;2023-05-07T09:41:45;3.55;;;2.47;;
41799;SDS011;27468;47.460;19.034;2023-05-07T09:44:12;2.45;;;2.10;;
41799;SDS011;27468;47.460;19.034;2023-05-07T09:46:39;2.30;;;1.92;;
41799;SDS011;27468;47.460;19.034;2023-05-07T09:49:08;3.25;;;2.40;;
41799;SDS011;27468;47.460;19.034;2023-05-07T09:51:45;2.70;;;2.00;;
41799;SDS011;27468;47.460;19.034;2023-05-07T09:54:13;3.42;;;2.22;;
41799;SDS011;27468;47.460;19.034;2023-05-07T09:56:39;4.13;;;2.22;;
41799;SDS011;27468;47.460;19.034;2023-05-07T09:59:10;2.30;;;1.70;;
41799;SDS011;27468;47.460;19.034;2023-05-07T10:01:38;3.65;;;2.15;;
41799;SDS011;27468;47.460;19.034;2023-05-07T10:04:05;2.58;;;1.77;;
41799;SDS011;27468;47.460;19.034;2023-05-07T10:06:34;2.33;;;2.13;;
41799;SDS011;27468;47.460;19.034;2023-05-07T10:09:00;2.72;;;2.08;;
41799;SDS011;27468;47.460;19.034;2023-05-07T10:11:27;2.63;;;2.08;;
41799;SDS011;27468;47.460;19.034;2023-05-07T10:13:53;2.47;;;1.88;;
41799;SDS011;27468;47.460;19.034;2023-05-07T10:16:18;2.42;;;2.22;;
41799;SDS011;27468;47.460;19.034;2023-05-07T10:18:45;2.33;;;1.80;;
41799;SDS011;27468;47.460;19.034;2023-05-07T10:21:13;2.05;;;1.70;;
41799;SDS011;27468;47.460;19.034;2023-05-07T10:23:44;2.33;;;1.92;;
41799;SDS011;27468;47.460;19.034;2023-05-07T10:26:11;2.58;;;2.08;;
41799;SDS011;27468;47.460;19.034;2023-05-07T10:28:38;2.28;;;2.03;;
41799;SDS011;27468;47.460;19.034;2023-05-07T10:33:54;2.40;;;2.03;;
41799;SDS011;27468;47.460;19.034;2023-05-07T10:36:21;2.72;;;2.00;;
41799;SDS011;27468;47.460;19.034;2023-05-07T10:38:47;2.10;;;1.73;;
41799;SDS011;27468;47.460;19.034;2023-05-07T10:41:13;2.17;;;1.88;;
41799;SDS011;27468;47.460;19.034;2023-05-07T10:46:16;2.70;;;2.13;;
41799;SDS011;27468;47.460;19.034;2023-05-07T10:51:31;2.72;;;2.38;;
41799;SDS011;27468;47.460;19.034;2023-05-07T10:56:34;2.72;;;2.47;;
41799;SDS011;27468;47.460;19.034;2023-05-07T11:01:59;3.22;;;2.53;;
41799;SDS011;27468;47.460;19.034;2023-05-07T11:04:31;3.05;;;2.08;;
41799;SDS011;27468;47.460;19.034;2023-05-07T11:13:03;2.72;;;2.35;;
41799;SDS011;27468;47.460;19.034;2023-05-07T11:17:29;2.53;;;2.05;;
41799;SDS011;27468;47.460;19.034;2023-05-07T11:19:57;2.10;;;1.90;;
41799;SDS011;27468;47.460;19.034;2023-05-07T11:24:59;2.00;;;1.75;;
41799;SDS011;27468;47.460;19.034;2023-05-07T11:27:25;2.22;;;2.03;;
41799;SDS011;27468;47.460;19.034;2023-05-07T11:29:51;2.38;;;1.95;;
41799;SDS011;27468;47.460;19.034;2023-05-07T11:32:30;4.28;;;2.20;;
41799;SDS011;27468;47.460;19.034;2023-05-07T11:34:57;1.83;;;1.73;;
41799;SDS011;27468;47.460;19.034;2023-05-07T11:37:23;2.20;;;2.00;;
41799;SDS011;27468;47.460;19.034;2023-05-07T11:39:50;2.10;;;1.90;;
41799;SDS011;27468;47.460;19.034;2023-05-07T11:42:34;2.72;;;1.70;;
41799;SDS011;27468;47.460;19.034;2023-05-07T11:45:03;2.05;;;1.85;;
41799;SDS011;27468;47.460;19.034;2023-05-07T11:47:30;1.85;;;1.65;;
41799;SDS011;27468;47.460;19.034;2023-05-07T11:49:56;1.80;;;1.48;;
41799;SDS011;27468;47.460;19.034;2023-05-07T11:52:26;2.17;;;1.83;;
41799;SDS011;27468;47.460;19.034;2023-05-07T11:54:52;1.60;;;1.50;;
41799;SDS011;27468;47.460;19.034;2023-05-07T11:57:22;1.60;;;1.50;;
41799;SDS011;27468;47.460;19.034;2023-05-07T11:59:52;2.72;;;1.80;;
41799;SDS011;27468;47.460;19.034;2023-05-07T12:02:24;2.35;;;2.10;;
41799;SDS011;27468;47.460;19.034;2023-05-07T12:04:53;2.47;;;1.92;;
41799;SDS011;27468;47.460;19.034;2023-05-07T12:07:19;2.15;;;1.95;;
41799;SDS011;27468;47.460;19.034;2023-05-07T12:09:45;2.30;;;2.10;;
41799;SDS011;27468;47.460;19.034;2023-05-07T12:12:12;1.92;;;1.60;;
41799;SDS011;27468;47.460;19.034;2023-05-07T12:14:43;3.90;;;2.35;;
41799;SDS011;27468;47.460;19.034;2023-05-07T12:17:10;2.47;;;1.92;;
41799;SDS011;27468;47.460;19.034;2023-05-07T12:19:37;2.60;;;1.92;;
41799;SDS011;27468;47.460;19.034;2023-05-07T12:22:04;2.00;;;1.90;;
41799;SDS011;27468;47.460;19.034;2023-05-07T12:24:42;2.10;;;1.75;;
41799;SDS011;27468;47.460;19.034;2023-05-07T12:27:12;1.63;;;1.50;;
41799;SDS011;27468;47.460;19.034;2023-05-07T12:29:38;2.70;;;1.88;;
41799;SDS011;27468;47.460;19.034;2023-05-07T12:32:05;1.85;;;1.60;;
41799;SDS011;27468;47.460;19.034;2023-05-07T12:34:31;1.95;;;1.75;;
41799;SDS011;27468;47.460;19.034;2023-05-07T12:36:57;1.60;;;1.50;;
41799;SDS011;27468;47.460;19.034;2023-05-07T12:39:26;1.63;;;1.52;;
41799;SDS011;27468;47.460;19.034;2023-05-07T12:41:53;1.35;;;1.15;;
41799;SDS011;27468;47.460;19.034;2023-05-07T12:44:23;1.70;;;1.60;;
41799;SDS011;27468;47.460;19.034;2023-05-07T12:46:50;2.45;;;1.80;;
41799;SDS011;27468;47.460;19.034;2023-05-07T12:49:16;1.98;;;1.80;;
41799;SDS011;27468;47.460;19.034;2023-05-07T12:51:43;2.40;;;1.63;;
41799;SDS011;27468;47.460;19.034;2023-05-07T12:54:09;1.65;;;1.50;;
41799;SDS011;27468;47.460;19.034;2023-05-07T12:56:37;2.55;;;1.70;;
41799;SDS011;27468;47.460;19.034;2023-05-07T12:59:02;1.58;;;1.48;;
41799;SDS011;27468;47.460;19.034;2023-05-07T13:01:29;2.22;;;1.90;;
41799;SDS011;27468;47.460;19.034;2023-05-07T13:03:56;1.77;;;1.45;;
41799;SDS011;27468;47.460;19.034;2023-05-07T13:06:25;1.50;;;1.40;;
41799;SDS011;27468;47.460;19.034;2023-05-07T13:08:51;1.70;;;1.60;;
41799;SDS011;27468;47.460;19.034;2023-05-07T13:11:17;1.70;;;1.60;;
41799;SDS011;27468;47.460;19.034;2023-05-07T13:13:42;1.88;;;1.73;;
41799;SDS011;27468;47.460;19.034;2023-05-07T13:16:08;1.70;;;1.50;;
41799;SDS011;27468;47.460;19.034;2023-05-07T13:18:35;2.10;;;1.90;;
41799;SDS011;27468;47.460;19.034;2023-05-07T13:21:01;2.30;;;1.70;;
41799;SDS011;27468;47.460;19.034;2023-05-07T13:23:27;2.13;;;1.40;;
41799;SDS011;27468;47.460;19.034;2023-05-07T13:25:53;2.13;;;1.58;;
41799;SDS011;27468;47.460;19.034;2023-05-07T13:28:19;2.20;;;1.90;;
41799;SDS011;27468;47.460;19.034;2023-05-07T13:30:45;2.50;;;1.83;;
41799;SDS011;27468;47.460;19.034;2023-05-07T13:33:11;1.77;;;1.35;;
41799;SDS011;27468;47.460;19.034;2023-05-07T13:35:37;1.92;;;1.58;;
41799;SDS011;27468;47.460;19.034;2023-05-07T13:38:02;1.52;;;1.40;;
41799;SDS011;27468;47.460;19.034;2023-05-07T13:40:28;2.28;;;1.40;;
41799;SDS011;27468;47.460;19.034;2023-05-07T13:42:53;1.73;;;1.58;;
41799;SDS011;27468;47.460;19.034;2023-05-07T13:45:19;1.92;;;1.75;;
41799;SDS011;27468;47.460;19.034;2023-05-07T13:47:45;1.60;;;1.35;;
41799;SDS011;27468;47.460;19.034;2023-05-07T13:50:11;1.50;;;1.40;;
41799;SDS011;27468;47.460;19.034;2023-05-07T13:52:39;1.75;;;1.20;;
41799;SDS011;27468;47.460;19.034;2023-05-07T13:55:06;1.35;;;1.23;;
41799;SDS011;27468;47.460;19.034;2023-05-07T13:57:32;1.70;;;1.35;;
41799;SDS011;27468;47.460;19.034;2023-05-07T13:59:57;1.80;;;1.67;;
41799;SDS011;27468;47.460;19.034;2023-05-07T14:02:23;1.85;;;1.67;;
41799;SDS011;27468;47.460;19.034;2023-05-07T14:04:48;2.17;;;1.90;;
41799;SDS011;27468;47.460;19.034;2023-05-07T14:07:13;2.00;;;1.80;;
41799;SDS011;27468;47.460;19.034;2023-05-07T14:09:40;2.25;;;1.75;;
41799;SDS011;27468;47.460;19.034;2023-05-07T14:12:05;1.77;;;1.65;;
41799;SDS011;27468;47.460;19.034;2023-05-07T14:14:31;2.42;;;1.55;;
41799;SDS011;27468;47.460;19.034;2023-05-07T14:16:56;1.42;;;1.33;;
41799;SDS011;27468;47.460;19.034;2023-05-07T14:19:22;1.73;;;1.40;;
41799;SDS011;27468;47.460;19.034;2023-05-07T14:21:48;1.60;;;1.42;;
41799;SDS011;27468;47.460;19.034;2023-05-07T14:24:13;1.50;;;1.35;;
41799;SDS011;27468;47.460;19.034;2023-05-07T14:26:39;1.75;;;1.50;;
41799;SDS011;27468;47.460;19.034;2023-05-07T14:29:04;1.38;;;1.27;;
41799;SDS011;27468;47.460;19.034;2023-05-07T14:31:30;2.30;;;1.30;;
41799;SDS011;27468;47.460;19.034;2023-05-07T14:33:55;2.45;;;1.40;;
41799;SDS011;27468;47.460;19.034;2023-05-07T14:36:22;1.45;;;1.30;;
41799;SDS011;27468;47.460;19.034;2023-05-07T14:38:51;2.42;;;1.73;;
41799;SDS011;27468;47.460;19.034;2023-05-07T14:41:20;1.65;;;1.30;;
41799;SDS011;27468;47.460;19.034;2023-05-07T14:43:47;2.25;;;1.50;;
41799;SDS011;27468;47.460;19.034;2023-05-07T14:46:18;1.70;;;1.30;;
41799;SDS011;27468;47.460;19.034;2023-05-07T14:48:44;1.58;;;1.30;;
41799;SDS011;27468;47.460;19.034;2023-05-07T14:51:10;1.98;;;1.40;;